Time;durP1;ratioP1;P1;durP2;ratioP2;P2;SDS_P1;SDS_P2;PMS_P1;PMS_P2;Temp;Humidity;BMP_temperature;BMP_pressure;BME280_temperature;BME280_humidity;BME280_pressure;Samples;Min_cycle;Max_cycle;Signal;HPM_P1;HPM_P2
2023/07/02 00:00:11;;;;;;;9.15;8.20;;;16.80;99.90;;;;;;6300447;28;20040;-85
2023/07/02 00:03:13;;;;;;;11.80;7.95;;;16.90;99.90;;;;;;6301597;28;20629;-84
2023/07/02 00:06:17;;;;;;;9.90;8.02;;;16.80;99.90;;;;;;6301389;28;20044;-85
2023/07/02 00:09:18;;;;;;;9.07;7.57;;;16.80;99.90;;;;;;6303781;28;20055;-84
2023/07/02 00:12:22;;;;;;;9.00;8.07;;;16.90;99.90;;;;;;6301184;28;20055;-84
2023/07/02 00:15:23;;;;;;;10.38;8.25;;;16.90;99.90;;;;;;6302918;28;20419;-83
2023/07/02 00:18:33;;;;;;;11.23;8.50;;;16.90;99.90;;;;;;6301059;28;20396;-83
2023/07/02 00:21:37;;;;;;;9.50;8.48;;;16.90;99.90;;;;;;6301770;28;20048;-84
2023/07/02 00:24:38;;;;;;;8.65;7.80;;;17.00;99.90;;;;;;6303011;28;20051;-85
2023/07/02 00:27:42;;;;;;;12.77;8.75;;;17.00;99.90;;;;;;6304495;28;20045;-84
2023/07/02 00:30:43;;;;;;;9.82;8.77;;;17.00;99.90;;;;;;6302572;28;20085;-83
2023/07/02 00:33:45;;;;;;;11.25;7.95;;;17.10;99.90;;;;;;6301753;28;20052;-84
2023/07/02 00:36:47;;;;;;;8.35;7.60;;;17.10;99.90;;;;;;6302970;28;20059;-85
2023/07/02 00:39:49;;;;;;;8.35;7.43;;;17.10;99.90;;;;;;6301214;28;20090;-85
2023/07/02 00:42:52;;;;;;;10.73;7.55;;;17.20;99.90;;;;;;6302806;28;20055;-85
2023/07/02 00:45:54;;;;;;;8.85;7.95;;;17.20;99.90;;;;;;6302223;28;20044;-85
2023/07/02 00:48:56;;;;;;;9.95;8.52;;;17.20;99.90;;;;;;6302197;28;20052;-83
2023/07/02 00:51:58;;;;;;;8.63;7.72;;;17.30;99.90;;;;;;6300623;28;20040;-82
2023/07/02 00:54:59;;;;;;;9.70;8.70;;;17.20;99.90;;;;;;6296461;28;20491;-82
2023/07/02 00:58:03;;;;;;;10.95;8.48;;;17.30;99.90;;;;;;6300130;28;20423;-85
2023/07/02 01:01:05;;;;;;;10.20;9.05;;;17.30;99.90;;;;;;6301453;28;20059;-84
2023/07/02 01:04:09;;;;;;;11.98;7.88;;;17.30;99.90;;;;;;6300528;28;20448;-84
2023/07/02 01:07:11;;;;;;;9.13;8.25;;;17.30;99.90;;;;;;6299127;28;20045;-83
2023/07/02 01:10:12;;;;;;;9.60;7.97;;;17.30;99.90;;;;;;6297612;28;20052;-84
2023/07/02 01:13:20;;;;;;;12.75;8.23;;;17.40;99.90;;;;;;6300315;28;20697;-83
2023/07/02 01:16:23;;;;;;;8.75;7.85;;;17.40;99.90;;;;;;6299196;28;20044;-84
2023/07/02 01:19:40;;;;;;;9.40;8.50;;;17.40;99.90;;;;;;6298576;28;20041;-84
2023/07/02 01:22:42;;;;;;;7.50;6.80;;;17.50;99.90;;;;;;6299075;28;20102;-84
2023/07/02 01:25:45;;;;;;;9.38;8.52;;;17.50;99.90;;;;;;6299128;28;20045;-84
2023/07/02 01:28:46;;;;;;;10.65;7.60;;;17.60;99.90;;;;;;6298044;28;20411;-84
2023/07/02 01:31:49;;;;;;;11.68;8.13;;;17.60;99.90;;;;;;6298943;28;20076;-84
2023/07/02 01:34:53;;;;;;;11.30;8.07;;;17.60;99.90;;;;;;6298483;28;20048;-84
2023/07/02 01:37:54;;;;;;;9.60;6.43;;;17.60;99.90;;;;;;6298658;28;20179;-84
2023/07/02 01:40:56;;;;;;;8.68;6.32;;;17.50;99.90;;;;;;6298926;28;20055;-83
2023/07/02 01:43:58;;;;;;;7.03;6.32;;;17.50;99.90;;;;;;6298731;28;20052;-82
2023/07/02 01:46:59;;;;;;;7.82;6.93;;;17.60;99.90;;;;;;6297388;28;20045;-85
2023/07/02 01:50:07;;;;;;;17.13;5.78;;;17.60;99.90;;;;;;6298716;28;20071;-84
2023/07/02 01:53:08;;;;;;;7.57;5.32;;;17.60;99.90;;;;;;6307123;28;20055;-85
2023/07/02 01:56:10;;;;;;;8.18;5.40;;;17.70;99.90;;;;;;6302567;28;20084;-85
2023/07/02 01:59:12;;;;;;;5.05;4.20;;;17.60;99.90;;;;;;6300618;28;20067;-84
2023/07/02 02:02:14;;;;;;;11.25;4.97;;;17.60;99.90;;;;;;6298196;28;20049;-85
2023/07/02 02:05:17;;;;;;;11.18;4.97;;;17.60;99.90;;;;;;6299648;28;20048;-86
2023/07/02 02:08:18;;;;;;;7.47;4.82;;;17.60;99.90;;;;;;6298546;28;20407;-84
2023/07/02 02:11:20;;;;;;;5.47;4.05;;;17.60;99.90;;;;;;6299186;28;20500;-84
2023/07/02 02:14:22;;;;;;;4.88;4.22;;;17.50;99.90;;;;;;6298499;28;20044;-84
2023/07/02 02:17:24;;;;;;;5.18;3.65;;;17.50;99.90;;;;;;6299157;28;20057;-84
2023/07/02 02:20:27;;;;;;;11.65;3.75;;;17.50;99.90;;;;;;6299752;28;20049;-84
2023/07/02 02:23:29;;;;;;;4.55;4.15;;;17.40;99.90;;;;;;6300092;28;20052;-85
2023/07/02 02:26:30;;;;;;;8.57;3.75;;;17.40;99.90;;;;;;6299936;28;20419;-84
2023/07/02 02:29:32;;;;;;;7.68;3.58;;;17.40;99.90;;;;;;6298582;28;20053;-84
2023/07/02 02:32:34;;;;;;;8.13;4.18;;;17.20;99.90;;;;;;6299504;28;20059;-85
2023/07/02 02:35:37;;;;;;;11.40;4.68;;;17.20;99.90;;;;;;6298946;28;20047;-85
2023/07/02 02:38:39;;;;;;;5.32;4.47;;;17.20;99.90;;;;;;6299405;28;20052;-85
2023/07/02 02:41:40;;;;;;;7.47;4.00;;;17.20;99.90;;;;;;6300018;28;20045;-85
2023/07/02 02:44:42;;;;;;;8.55;3.95;;;17.10;99.90;;;;;;6299205;28;20052;-85
2023/07/02 02:47:43;;;;;;;9.10;4.18;;;17.10;99.90;;;;;;6297935;28;20051;-85
2023/07/02 02:50:48;;;;;;;10.38;4.03;;;17.00;99.90;;;;;;6299278;28;20048;-85
2023/07/02 02:53:49;;;;;;;4.57;4.03;;;16.90;99.90;;;;;;6298267;28;20045;-84
2023/07/02 02:56:51;;;;;;;6.22;4.38;;;16.80;99.90;;;;;;6299049;28;20423;-84
2023/07/02 02:59:53;;;;;;;7.85;3.90;;;16.80;99.90;;;;;;6299521;28;20048;-85
2023/07/02 03:02:55;;;;;;;4.78;3.90;;;16.80;99.90;;;;;;6297919;28;20059;-84
2023/07/02 03:05:58;;;;;;;8.70;4.45;;;16.80;99.90;;;;;;6297296;28;20423;-85
2023/07/02 03:09:00;;;;;;;7.15;4.53;;;16.70;99.90;;;;;;6299659;28;20052;-84
2023/07/02 03:12:02;;;;;;;4.50;4.05;;;16.70;99.90;;;;;;6297729;28;20123;-83
2023/07/02 03:15:04;;;;;;;9.63;5.28;;;16.50;99.90;;;;;;6300168;28;20060;-84
2023/07/02 03:18:06;;;;;;;9.00;4.80;;;16.50;99.90;;;;;;6301363;28;20075;-85
2023/07/02 03:21:09;;;;;;;8.07;5.35;;;16.50;99.90;;;;;;6302285;28;20048;-85
2023/07/02 03:24:11;;;;;;;7.38;3.95;;;16.40;99.90;;;;;;6296283;28;20060;-84
2023/07/02 03:27:13;;;;;;;7.97;5.22;;;16.40;99.90;;;;;;6300799;28;20060;-85
2023/07/02 03:30:15;;;;;;;5.88;5.25;;;16.30;99.90;;;;;;6301103;28;20060;-86
2023/07/02 03:33:16;;;;;;;6.32;5.28;;;16.30;99.90;;;;;;6302383;28;20048;-83
2023/07/02 03:36:19;;;;;;;11.65;8.35;;;16.30;99.90;;;;;;6301891;28;20045;-84
2023/07/02 03:39:21;;;;;;;5.65;5.07;;;16.30;99.90;;;;;;6301342;28;20441;-83
2023/07/02 03:42:23;;;;;;;7.80;5.38;;;16.30;99.90;;;;;;6301727;28;20123;-83
2023/07/02 03:45:24;;;;;;;6.75;6.05;;;16.30;99.90;;;;;;6302758;28;20059;-84
2023/07/02 03:48:26;;;;;;;12.15;5.47;;;16.30;99.90;;;;;;6302229;28;20041;-83
2023/07/02 03:51:29;;;;;;;11.70;6.25;;;16.30;99.90;;;;;;6301827;28;20499;-83
2023/07/02 03:54:31;;;;;;;10.13;5.32;;;16.30;99.90;;;;;;6301178;28;20044;-84
2023/07/02 03:57:32;;;;;;;9.80;6.47;;;16.20;99.90;;;;;;6301009;28;20068;-83
2023/07/02 04:00:34;;;;;;;9.23;4.85;;;16.30;99.90;;;;;;6302001;28;20056;-83
2023/07/02 04:03:36;;;;;;;7.78;6.10;;;16.30;99.90;;;;;;6302110;28;20048;-82
2023/07/02 04:06:39;;;;;;;8.18;5.85;;;16.30;99.90;;;;;;6301675;28;20105;-83
2023/07/02 04:09:40;;;;;;;9.02;5.93;;;16.30;99.90;;;;;;6300699;28;20040;-82
2023/07/02 04:12:42;;;;;;;17.50;5.75;;;16.30;99.90;;;;;;6301820;28;20052;-83
2023/07/02 04:15:44;;;;;;;8.88;5.90;;;16.30;99.90;;;;;;6301400;28;20062;-82
2023/07/02 04:18:45;;;;;;;10.27;5.32;;;16.30;99.90;;;;;;6300548;28;20051;-82
2023/07/02 04:21:48;;;;;;;15.45;5.45;;;16.30;99.90;;;;;;6300722;28;20057;-83
2023/07/02 04:24:50;;;;;;;6.38;5.38;;;16.30;99.90;;;;;;6300099;28;20472;-84
2023/07/02 04:27:56;;;;;;;7.53;5.10;;;16.40;99.90;;;;;;6299666;28;20055;-83
2023/07/02 04:30:57;;;;;;;8.75;5.90;;;16.60;99.90;;;;;;6300180;28;20055;-82
2023/07/02 04:33:59;;;;;;;8.07;6.22;;;16.60;99.90;;;;;;6299985;28;20055;-83
2023/07/02 04:37:02;;;;;;;9.57;5.47;;;16.70;99.90;;;;;;6301583;28;20083;-83
2023/07/02 04:40:06;;;;;;;10.15;5.97;;;16.90;99.90;;;;;;6300738;28;20048;-83
2023/07/02 04:43:08;;;;;;;9.45;6.13;;;17.00;99.90;;;;;;6301128;28;20053;-83
2023/07/02 04:46:12;;;;;;;12.20;5.55;;;17.10;99.90;;;;;;6302378;28;20057;-83
2023/07/02 04:49:13;;;;;;;9.63;5.90;;;17.10;99.90;;;;;;6301002;28;20135;-83
2023/07/02 04:52:16;;;;;;;10.50;5.72;;;17.20;99.90;;;;;;6299655;28;20044;-82
2023/07/02 04:55:18;;;;;;;13.45;5.47;;;17.20;99.90;;;;;;6299550;28;20511;-83
2023/07/02 04:58:20;;;;;;;6.72;5.25;;;17.30;99.90;;;;;;6300344;28;20047;-83
2023/07/02 05:01:21;;;;;;;9.45;4.80;;;17.40;99.90;;;;;;6300368;28;20045;-83
2023/07/02 05:04:23;;;;;;;6.85;5.10;;;17.60;99.90;;;;;;6303761;28;20055;-83
2023/07/02 05:07:26;;;;;;;9.55;5.70;;;17.70;99.90;;;;;;6304570;28;20040;-82
2023/07/02 05:10:28;;;;;;;7.75;4.55;;;17.70;99.90;;;;;;6306712;28;20749;-82
2023/07/02 05:13:30;;;;;;;11.70;5.65;;;17.70;99.90;;;;;;6306135;28;20059;-81
2023/07/02 05:16:31;;;;;;;12.18;6.15;;;17.80;99.90;;;;;;6305697;28;20044;-83
2023/07/02 05:19:33;;;;;;;11.27;5.20;;;18.00;99.90;;;;;;6304633;28;20045;-82
2023/07/02 05:22:36;;;;;;;8.20;4.03;;;18.60;99.90;;;;;;6300998;28;20044;-82
2023/07/02 05:25:38;;;;;;;8.57;4.97;;;18.80;99.90;;;;;;6303605;28;20052;-81
2023/07/02 05:28:39;;;;;;;8.05;5.20;;;18.80;99.90;;;;;;6300955;28;20064;-82
2023/07/02 05:31:41;;;;;;;8.73;5.40;;;18.90;99.90;;;;;;6299244;28;20044;-81
2023/07/02 05:34:43;;;;;;;7.43;3.83;;;19.10;99.90;;;;;;6299862;28;20048;-83
2023/07/02 05:37:46;;;;;;;6.97;5.22;;;19.40;99.90;;;;;;6298927;28;20059;-83
2023/07/02 05:40:48;;;;;;;8.95;4.25;;;19.40;99.90;;;;;;6300532;28;20051;-81
2023/07/02 05:43:49;;;;;;;7.80;5.68;;;19.50;99.90;;;;;;6289306;28;20048;-81
2023/07/02 05:46:51;;;;;;;10.07;4.65;;;19.60;99.90;;;;;;6303835;28;20057;-83
2023/07/02 05:49:53;;;;;;;7.45;4.90;;;19.50;99.90;;;;;;6303413;28;20044;-82
2023/07/02 05:52:56;;;;;;;12.35;5.53;;;19.50;99.90;;;;;;6301968;28;20059;-82
2023/07/02 05:55:57;;;;;;;6.43;3.95;;;19.40;99.90;;;;;;6302110;28;20040;-82
2023/07/02 05:58:59;;;;;;;11.85;5.68;;;19.40;99.90;;;;;;6300314;28;20041;-83
2023/07/02 06:02:01;;;;;;;8.70;4.63;;;19.50;99.90;;;;;;6300852;28;20507;-82
2023/07/02 06:05:03;;;;;;;7.05;4.70;;;19.80;99.90;;;;;;6301532;28;20059;-83
2023/07/02 06:08:06;;;;;;;7.85;5.10;;;19.80;99.90;;;;;;6299682;28;20053;-82
2023/07/02 06:11:08;;;;;;;8.27;4.95;;;19.70;99.90;;;;;;6300215;28;20080;-82
2023/07/02 06:14:10;;;;;;;10.60;5.15;;;19.70;99.90;;;;;;6300646;28;20049;-83
2023/07/02 06:17:11;;;;;;;11.10;6.15;;;19.60;99.90;;;;;;6301064;28;20048;-83
2023/07/02 06:20:14;;;;;;;7.80;6.05;;;19.50;99.90;;;;;;6302107;28;20127;-82
2023/07/02 06:23:17;;;;;;;8.38;5.82;;;19.50;99.90;;;;;;6301828;28;20052;-82
2023/07/02 06:26:18;;;;;;;9.45;6.43;;;19.50;99.90;;;;;;6301280;28;20556;-81
2023/07/02 06:29:20;;;;;;;9.38;6.43;;;19.60;99.90;;;;;;6299943;28;20053;-82
2023/07/02 06:32:22;;;;;;;11.15;7.80;;;19.60;99.90;;;;;;6302331;28;20049;-82
2023/07/02 06:35:23;;;;;;;12.68;8.00;;;19.70;99.90;;;;;;6301143;28;20045;-82
2023/07/02 06:38:26;;;;;;;15.20;7.93;;;19.70;99.90;;;;;;6300846;28;20127;-82
2023/07/02 06:41:28;;;;;;;12.45;8.20;;;19.90;99.90;;;;;;6301774;28;20045;-81
2023/07/02 06:44:30;;;;;;;12.63;7.53;;;20.30;99.90;;;;;;6300821;28;20041;-83
2023/07/02 06:47:31;;;;;;;21.33;8.02;;;21.10;99.90;;;;;;6299259;28;20055;-82
2023/07/02 06:50:33;;;;;;;16.40;10.23;;;21.60;99.90;;;;;;6300460;28;20139;-82
2023/07/02 06:53:36;;;;;;;14.98;9.35;;;22.10;99.90;;;;;;6302006;28;20052;-82
2023/07/02 06:56:38;;;;;;;17.15;11.20;;;22.70;99.90;;;;;;6300002;28;20060;-82
2023/07/02 06:59:40;;;;;;;17.17;11.05;;;22.80;99.90;;;;;;6300485;28;20043;-83
2023/07/02 07:02:42;;;;;;;17.83;11.73;;;23.00;99.90;;;;;;6303236;28;20045;-83
2023/07/02 07:05:44;;;;;;;18.20;11.10;;;23.20;99.60;;;;;;6301283;28;20210;-83
2023/07/02 07:08:47;;;;;;;16.77;12.60;;;23.50;98.10;;;;;;6300320;28;20056;-83
2023/07/02 07:11:48;;;;;;;17.13;11.80;;;24.00;97.60;;;;;;6300113;28;20041;-82
2023/07/02 07:14:50;;;;;;;19.55;13.32;;;24.40;96.00;;;;;;6301330;28;20511;-83
2023/07/02 07:17:52;;;;;;;18.45;12.52;;;25.00;94.90;;;;;;6299451;28;20066;-83
2023/07/02 07:20:54;;;;;;;18.55;12.68;;;25.50;93.10;;;;;;6301072;28;20135;-82
2023/07/02 07:23:57;;;;;;;16.85;11.38;;;26.00;92.40;;;;;;6299080;28;20052;-83
2023/07/02 07:26:59;;;;;;;18.42;13.25;;;26.60;90.20;;;;;;6299670;28;20051;-84
2023/07/02 07:30:01;;;;;;;15.18;12.73;;;26.70;88.70;;;;;;6301134;28;20456;-83
2023/07/02 07:33:03;;;;;;;22.85;12.02;;;26.80;84.40;;;;;;6296182;28;20179;-83
2023/07/02 07:36:05;;;;;;;15.30;10.98;;;26.90;82.50;;;;;;6303029;28;20044;-83
2023/07/02 07:39:08;;;;;;;17.30;12.20;;;27.20;81.90;;;;;;6300144;28;20155;-83
2023/07/02 07:42:09;;;;;;;19.88;12.05;;;27.10;78.00;;;;;;6300569;28;20060;-83
2023/07/02 07:45:12;;;;;;;19.33;13.52;;;27.20;78.50;;;;;;6300510;28;20072;-83
2023/07/02 07:48:13;;;;;;;20.35;14.73;;;27.20;75.90;;;;;;6299774;28;20047;-83
2023/07/02 07:51:15;;;;;;;31.67;19.90;;;27.20;75.80;;;;;;6301092;28;20048;-83
2023/07/02 07:54:18;;;;;;;31.30;23.92;;;26.90;74.20;;;;;;6301041;28;20044;-84
2023/07/02 07:57:20;;;;;;;24.20;18.95;;;26.50;73.80;;;;;;6300660;28;20054;-84
2023/07/02 08:00:24;;;;;;;29.77;19.70;;;26.50;74.20;;;;;;6301321;28;20509;-83
2023/07/02 08:03:25;;;;;;;28.33;18.50;;;26.40;73.80;;;;;;6303883;28;20419;-84
2023/07/02 08:06:27;;;;;;;26.90;17.70;;;26.80;74.10;;;;;;6304578;28;20051;-84
2023/07/02 08:09:30;;;;;;;21.83;16.48;;;27.30;73.50;;;;;;6304597;28;20044;-83
2023/07/02 08:12:32;;;;;;;25.52;15.98;;;27.60;71.80;;;;;;6304109;28;20044;-83
2023/07/02 08:15:34;;;;;;;22.35;17.90;;;27.80;71.60;;;;;;6302992;28;20095;-82
2023/07/02 08:22:19;;;;;;;25.08;18.30;;;28.00;68.00;;;;;;6292760;28;20040;-83
2023/07/02 08:25:23;;;;;;;25.45;17.77;;;27.80;71.30;;;;;;6289622;28;20059;-82
2023/07/02 08:28:24;;;;;;;25.30;17.67;;;28.30;69.60;;;;;;6290026;28;20049;-82
2023/07/02 08:31:26;;;;;;;28.60;18.95;;;28.40;68.20;;;;;;6290202;28;20075;-81
2023/07/02 08:34:28;;;;;;;32.58;18.70;;;28.60;68.70;;;;;;6290723;28;20040;-80
2023/07/02 08:37:29;;;;;;;25.45;18.98;;;28.10;67.10;;;;;;6289529;28;20052;-82
2023/07/02 08:40:32;;;;;;;30.42;18.35;;;28.10;67.20;;;;;;6290345;28;20414;-84
2023/07/02 08:43:34;;;;;;;26.48;18.05;;;28.20;66.60;;;;;;6289185;28;20044;-84
2023/07/02 08:46:36;;;;;;;32.20;20.88;;;28.30;65.60;;;;;;6289904;28;20048;-84
2023/07/02 08:49:38;;;;;;;29.88;18.48;;;28.30;65.50;;;;;;6288893;28;20055;-83
2023/07/02 08:52:40;;;;;;;28.48;18.77;;;28.30;64.60;;;;;;6289642;28;20049;-83
2023/07/02 08:55:43;;;;;;;24.02;17.10;;;28.20;63.60;;;;;;6289273;28;20109;-83
2023/07/02 08:58:44;;;;;;;24.77;17.65;;;28.10;65.10;;;;;;6290118;28;20063;-82
2023/07/02 09:01:47;;;;;;;23.63;17.48;;;28.40;64.30;;;;;;6288373;28;20052;-84
2023/07/02 09:04:59;;;;;;;31.67;18.00;;;28.30;64.40;;;;;;6291716;28;20049;-83
2023/07/02 09:08:00;;;;;;;23.60;18.35;;;28.40;63.90;;;;;;6292364;28;20041;-83
2023/07/02 09:11:11;;;;;;;22.75;18.67;;;28.30;62.90;;;;;;6288470;28;20052;-81
2023/07/02 09:14:13;;;;;;;28.40;19.17;;;28.00;62.50;;;;;;6289983;28;20230;-82
2023/07/02 09:17:16;;;;;;;25.98;16.40;;;27.50;63.50;;;;;;6290737;28;20048;-83
2023/07/02 09:20:18;;;;;;;28.33;17.92;;;27.50;64.30;;;;;;6289133;28;20178;-82
2023/07/02 09:23:20;;;;;;;23.17;18.27;;;28.00;64.10;;;;;;6288330;28;20564;-79
2023/07/02 09:26:24;;;;;;;26.15;19.42;;;28.00;62.40;;;;;;6290188;28;20126;-81
2023/07/02 09:29:28;;;;;;;27.88;16.23;;;27.80;62.90;;;;;;6288685;28;20059;-80
2023/07/02 09:32:29;;;;;;;21.70;15.77;;;28.20;63.50;;;;;;6290413;28;20119;-81
2023/07/02 09:35:31;;;;;;;22.27;16.60;;;28.60;61.90;;;;;;6292544;28;20043;-81
2023/07/02 09:38:33;;;;;;;22.08;15.82;;;29.00;60.90;;;;;;6295612;28;20048;-81
2023/07/02 09:41:37;;;;;;;29.75;16.45;;;29.10;60.20;;;;;;6295130;28;20060;-83
2023/07/02 09:44:40;;;;;;;26.35;18.60;;;29.20;60.00;;;;;;6291790;28;20053;-83
2023/07/02 09:47:48;;;;;;;27.30;17.58;;;29.50;59.40;;;;;;6289328;28;20084;-83
2023/07/02 09:50:52;;;;;;;21.77;16.02;;;29.40;57.70;;;;;;6291878;28;20040;-83
2023/07/02 09:53:54;;;;;;;27.38;17.38;;;28.70;57.40;;;;;;6291463;28;20052;-84
2023/07/02 09:56:57;;;;;;;24.15;15.85;;;28.50;57.90;;;;;;6293407;28;20120;-82
2023/07/02 10:00:00;;;;;;;24.52;17.10;;;28.20;56.80;;;;;;6285956;28;20617;-85
2023/07/02 10:03:02;;;;;;;24.80;18.48;;;27.80;58.10;;;;;;6287248;28;20052;-85
2023/07/02 10:06:05;;;;;;;28.23;18.40;;;27.70;59.10;;;;;;6287025;28;20133;-84
2023/07/02 10:09:07;;;;;;;23.63;17.10;;;27.60;59.60;;;;;;6288571;28;20044;-84
2023/07/02 10:12:22;;;;;;;28.75;19.60;;;27.20;60.50;;;;;;6288344;28;20051;-84
2023/07/02 10:15:27;;;;;;;25.80;18.42;;;27.00;61.20;;;;;;6288467;28;20048;-83
2023/07/02 10:18:29;;;;;;;24.27;18.25;;;26.80;61.10;;;;;;6292521;28;20063;-83
2023/07/02 10:21:31;;;;;;;24.52;16.52;;;26.70;62.20;;;;;;6288426;28;20051;-83
2023/07/02 10:24:37;;;;;;;23.83;18.33;;;26.90;61.70;;;;;;6293220;28;20102;-85
2023/07/02 10:27:41;;;;;;;26.88;17.15;;;26.80;61.10;;;;;;6286389;28;20065;-83
2023/07/02 10:30:43;;;;;;;23.88;17.90;;;26.60;61.50;;;;;;6288920;28;20380;-82
2023/07/02 10:33:45;;;;;;;29.67;17.55;;;26.30;62.00;;;;;;6284591;28;20071;-83
2023/07/02 10:36:47;;;;;;;31.20;18.33;;;26.10;62.60;;;;;;6263289;28;20044;-82
2023/07/02 10:39:48;;;;;;;26.67;17.90;;;26.20;62.90;;;;;;6265947;28;20049;-83
2023/07/02 10:42:53;;;;;;;25.95;18.00;;;26.60;62.10;;;;;;6266689;28;20783;-84
2023/07/02 10:45:55;;;;;;;24.35;17.15;;;26.80;60.40;;;;;;6265385;28;20049;-83
2023/07/02 10:49:00;;;;;;;22.98;15.40;;;27.30;59.90;;;;;;6264735;28;20461;-83
2023/07/02 10:52:03;;;;;;;28.52;17.42;;;27.40;59.10;;;;;;6260200;28;20508;-83
2023/07/02 10:55:06;;;;;;;29.75;16.05;;;27.60;58.90;;;;;;6263953;28;20044;-84
2023/07/02 10:58:11;;;;;;;23.40;15.60;;;28.20;57.90;;;;;;6263783;28;20105;-83
2023/07/02 11:01:13;;;;;;;25.98;16.52;;;28.60;57.20;;;;;;6262805;28;20537;-83
2023/07/02 11:04:15;;;;;;;26.15;16.40;;;28.40;55.90;;;;;;6262853;28;20071;-83
2023/07/02 11:07:23;;;;;;;24.00;16.02;;;28.70;56.00;;;;;;6263117;28;20040;-82
2023/07/02 11:10:25;;;;;;;26.30;15.90;;;29.00;54.50;;;;;;6273731;28;20052;-80
2023/07/02 11:13:28;;;;;;;21.10;16.48;;;29.10;54.00;;;;;;6289520;28;20049;-83
2023/07/02 11:16:32;;;;;;;23.02;14.95;;;28.80;52.30;;;;;;6270777;28;20057;-83
2023/07/02 11:19:34;;;;;;;21.80;16.95;;;28.60;51.40;;;;;;6264721;28;20559;-85
2023/07/02 11:22:38;;;;;;;23.15;16.55;;;28.30;52.00;;;;;;6264749;28;20048;-84
2023/07/02 11:25:39;;;;;;;22.75;14.55;;;28.40;52.10;;;;;;6264770;28;20120;-85
2023/07/02 11:28:51;;;;;;;23.33;15.25;;;28.60;52.90;;;;;;6263433;28;20053;-85
2023/07/02 11:31:53;;;;;;;23.70;17.25;;;28.90;52.60;;;;;;6263765;28;20105;-84
2023/07/02 11:34:56;;;;;;;17.92;14.75;;;28.50;52.10;;;;;;6268288;28;20056;-84
2023/07/02 11:37:58;;;;;;;25.17;16.58;;;28.40;52.20;;;;;;6269471;28;20094;-85
2023/07/02 11:40:59;;;;;;;24.85;17.85;;;28.10;51.50;;;;;;6271690;28;20040;-86
2023/07/02 11:44:02;;;;;;;19.15;16.25;;;27.70;52.80;;;;;;6280671;28;20475;-85
2023/07/02 11:47:05;;;;;;;26.38;17.00;;;27.90;53.60;;;;;;6277370;28;20068;-85
2023/07/02 11:50:07;;;;;;;22.77;17.13;;;28.40;53.30;;;;;;6268691;28;20136;-86
2023/07/02 11:53:09;;;;;;;24.35;17.00;;;28.90;52.80;;;;;;6267168;28;20646;-84
2023/07/02 11:56:10;;;;;;;22.55;16.35;;;29.40;52.50;;;;;;6265883;28;20045;-85
2023/07/02 11:59:13;;;;;;;25.23;15.63;;;29.80;51.70;;;;;;6268332;28;20044;-82
2023/07/02 12:02:15;;;;;;;22.70;15.68;;;30.00;51.00;;;;;;6267775;28;20052;-83
2023/07/02 12:05:17;;;;;;;23.33;14.48;;;30.40;50.40;;;;;;6269636;28;20068;-86
2023/07/02 12:08:18;;;;;;;20.40;14.05;;;30.30;49.00;;;;;;6270822;28;20045;-82
2023/07/02 12:11:20;;;;;;;21.30;14.38;;;30.30;48.70;;;;;;6267542;28;20051;-84
2023/07/02 12:14:23;;;;;;;20.70;14.18;;;30.40;47.90;;;;;;6272408;28;20052;-83
2023/07/02 12:17:25;;;;;;;16.38;12.68;;;30.30;47.70;;;;;;6271944;28;20048;-84
2023/07/02 12:20:26;;;;;;;21.50;15.25;;;30.10;47.30;;;;;;6271204;28;20041;-84
2023/07/02 12:23:28;;;;;;;20.40;14.48;;;30.10;47.80;;;;;;6267634;28;20045;-85
2023/07/02 12:26:30;;;;;;;19.75;15.68;;;30.20;46.70;;;;;;6271351;28;20045;-85
2023/07/02 12:29:33;;;;;;;25.90;14.85;;;29.70;47.00;;;;;;6271970;28;20514;-84
2023/07/02 12:32:34;;;;;;;19.02;13.98;;;29.50;47.80;;;;;;6278776;28;20044;-83
2023/07/02 12:35:36;;;;;;;20.85;15.73;;;29.70;47.00;;;;;;6272195;28;20057;-84
2023/07/02 12:38:38;;;;;;;22.80;15.95;;;29.80;47.10;;;;;;6267528;28;20384;-83
2023/07/02 12:41:40;;;;;;;24.50;15.20;;;30.10;46.80;;;;;;6269055;28;20068;-82
2023/07/02 12:44:43;;;;;;;24.05;15.00;;;30.50;46.10;;;;;;6266886;28;20057;-82
2023/07/02 12:47:45;;;;;;;20.80;14.23;;;30.90;45.50;;;;;;6265917;28;20049;-82
2023/07/02 12:50:55;;;;;;;22.00;13.63;;;30.60;44.20;;;;;;6264521;28;20051;-84
2023/07/02 12:53:57;;;;;;;19.88;12.50;;;30.30;44.80;;;;;;6267938;28;20042;-83
2023/07/02 12:56:58;;;;;;;19.50;12.98;;;30.30;43.50;;;;;;6266935;28;20071;-85
2023/07/02 13:00:01;;;;;;;21.42;14.00;;;30.20;43.00;;;;;;6264611;28;20369;-84
2023/07/02 13:03:03;;;;;;;16.85;14.05;;;30.10;43.20;;;;;;6266639;28;20041;-85
2023/07/02 13:06:05;;;;;;;23.70;13.43;;;30.10;43.70;;;;;;6265762;28;20064;-85
2023/07/02 13:09:07;;;;;;;22.40;14.57;;;30.30;43.80;;;;;;6267308;28;20053;-84
2023/07/02 13:12:09;;;;;;;20.42;12.10;;;30.40;43.50;;;;;;6260731;28;20049;-84
2023/07/02 13:15:13;;;;;;;19.15;12.73;;;30.50;43.00;;;;;;6261895;28;20721;-84
2023/07/02 13:18:14;;;;;;;20.98;14.10;;;30.50;42.50;;;;;;6261064;28;20037;-84
2023/07/02 13:21:16;;;;;;;18.60;13.00;;;30.70;42.80;;;;;;6263041;28;20050;-85
2023/07/02 13:24:18;;;;;;;20.00;12.52;;;30.80;42.50;;;;;;6263443;28;20052;-84
2023/07/02 13:27:20;;;;;;;18.73;14.18;;;30.90;42.50;;;;;;6263101;28;20045;-84
2023/07/02 13:30:23;;;;;;;19.83;13.40;;;31.00;42.40;;;;;;6260798;28;20110;-84
2023/07/02 13:33:25;;;;;;;20.63;13.23;;;31.20;41.70;;;;;;6261636;28;20115;-83
2023/07/02 13:36:28;;;;;;;18.15;13.27;;;31.00;41.90;;;;;;6262967;28;20045;-85
2023/07/02 13:39:30;;;;;;;21.10;12.80;;;30.90;41.50;;;;;;6257742;28;20145;-82
2023/07/02 13:42:31;;;;;;;18.73;12.13;;;30.70;41.40;;;;;;6268659;28;20048;-84
2023/07/02 13:45:34;;;;;;;15.98;11.75;;;30.40;41.00;;;;;;6258316;28;20068;-84
2023/07/02 13:48:36;;;;;;;19.88;11.77;;;30.30;41.10;;;;;;6264054;28;20045;-83
2023/07/02 13:51:38;;;;;;;15.90;12.18;;;30.30;41.30;;;;;;6263078;28;20037;-83
2023/07/02 13:54:39;;;;;;;22.48;13.02;;;30.30;41.40;;;;;;6264070;28;20060;-82
2023/07/02 13:57:41;;;;;;;23.05;12.88;;;30.30;41.60;;;;;;6264084;28;20052;-82
2023/07/02 14:00:45;;;;;;;19.55;12.05;;;30.30;41.60;;;;;;6266657;28;20052;-83
2023/07/02 14:03:47;;;;;;;21.33;12.98;;;30.40;41.40;;;;;;6264170;28;20171;-83
2023/07/02 14:06:48;;;;;;;20.75;13.57;;;30.50;42.10;;;;;;6267884;28;20056;-83
2023/07/02 14:09:50;;;;;;;17.30;13.20;;;30.70;41.60;;;;;;6266671;28;20049;-83
2023/07/02 14:12:52;;;;;;;18.75;12.40;;;30.70;41.60;;;;;;6260215;28;20041;-85
2023/07/02 14:15:55;;;;;;;21.73;14.48;;;30.80;41.80;;;;;;6261663;28;20043;-84
2023/07/02 14:18:56;;;;;;;19.58;14.70;;;31.00;41.70;;;;;;6260241;28;20059;-85
2023/07/02 14:21:58;;;;;;;17.63;13.70;;;30.90;41.30;;;;;;6261401;28;20048;-83
2023/07/02 14:25:00;;;;;;;21.70;12.32;;;30.90;41.00;;;;;;6262525;28;20045;-85
2023/07/02 14:28:01;;;;;;;16.95;13.25;;;30.80;41.20;;;;;;6260997;28;20045;-83
2023/07/02 14:31:07;;;;;;;21.73;13.98;;;30.70;41.00;;;;;;6263368;28;20120;-83
2023/07/02 14:34:08;;;;;;;21.23;14.00;;;30.70;40.90;;;;;;6261370;28;20048;-84
2023/07/02 14:37:10;;;;;;;19.02;13.05;;;30.50;41.20;;;;;;6265707;28;20059;-85
2023/07/02 14:40:13;;;;;;;20.52;13.88;;;30.60;41.30;;;;;;6261847;28;20052;-83
2023/07/02 14:43:15;;;;;;;22.38;12.43;;;30.60;41.60;;;;;;6263184;28;20045;-85
2023/07/02 14:46:18;;;;;;;19.05;13.40;;;30.50;41.50;;;;;;6261454;28;20048;-83
2023/07/02 14:49:21;;;;;;;21.30;12.55;;;30.50;41.40;;;;;;6260361;28;20049;-81
2023/07/02 14:52:22;;;;;;;23.13;13.80;;;30.40;41.30;;;;;;6267581;28;20045;-83
2023/07/02 14:55:24;;;;;;;20.50;12.52;;;30.40;41.30;;;;;;6262403;28;20049;-82
2023/07/02 14:58:29;;;;;;;19.65;13.55;;;30.40;41.20;;;;;;6267274;28;20055;-82
2023/07/02 15:01:32;;;;;;;23.48;14.07;;;30.40;41.00;;;;;;6264172;28;20041;-82
2023/07/02 15:04:34;;;;;;;21.58;13.98;;;30.40;41.80;;;;;;6262716;28;20488;-81
2023/07/02 15:07:36;;;;;;;22.48;13.23;;;30.20;41.30;;;;;;6261468;28;20044;-82
2023/07/02 15:10:38;;;;;;;19.35;12.05;;;30.00;41.80;;;;;;6264823;28;20053;-82
2023/07/02 15:13:40;;;;;;;18.77;13.23;;;30.10;41.50;;;;;;6263396;28;20045;-83
2023/07/02 15:16:43;;;;;;;27.85;14.45;;;30.10;41.80;;;;;;6264351;28;20080;-81
2023/07/02 15:19:45;;;;;;;20.73;13.07;;;30.10;41.40;;;;;;6266545;28;20052;-82
2023/07/02 15:22:47;;;;;;;17.80;13.35;;;30.10;41.60;;;;;;6269807;28;20059;-83
2023/07/02 15:25:52;;;;;;;17.63;13.02;;;30.00;41.90;;;;;;6264008;28;20041;-83
2023/07/02 15:28:54;;;;;;;22.23;13.50;;;29.80;41.50;;;;;;6268163;28;20041;-82
2023/07/02 15:31:57;;;;;;;18.92;13.00;;;29.60;41.60;;;;;;6270887;28;20033;-81
2023/07/02 15:34:58;;;;;;;23.42;13.55;;;29.50;41.50;;;;;;6267675;28;20419;-82